ADDS METAR Data INFO
IDs: Format: Raw Decoded Include TAF

Data at: 0852 UTC 19 Jun 2018

PANV 190556Z AUTO 13010KT 10SM -RA FEW024 BKN055 OVC070 13/11 A2952 RMK AO2 RAB02 SLP017 P0000 60000 T01280111 10144 20128 53011
PANV 190456Z AUTO 12009G15KT 10SM FEW026 OVC034 14/10 A2950 RMK AO2 RAE06 SLP009 P0000 T01440100
PANV 190334Z AUTO 11009KT 10SM -RA SCT028 BKN037 OVC049 14/10 A2948 RMK AO2 RAB07 P0000
PANV 190012Z AUTO 12009KT 10SM -RA SCT024 BKN039 OVC050 13/10 A2949 RMK AO2 RAB02 P0000
PANV 182156Z AUTO 04007KT 10SM -RA SCT005 BKN014 OVC019 12/11 A2947 RMK AO2 SLP001 P0001 T01220111
PANV 181856Z AUTO 05009KT 10SM -RA OVC005 10/09 A2947 RMK AO2 CIG 003V008 SLP003 P0002 T01000094
PANV 181837Z AUTO 04009KT 7SM -RA OVC005 10/09 A2947 RMK AO2 CIG 003V008 P0001
PANV 181527Z AUTO 02008KT 10SM -RA FEW006 OVC055 10/09 A2951 RMK AO2 P0000
PANV 181256Z AUTO 04006KT 10SM -RA SCT045 BKN055 OVC075 09/08 A2956 RMK AO2 RAB10 SLP032 P0001 T00940083
PANV 180556Z AUTO 11005KT 10SM -RA SCT035 BKN047 OVC055 11/09 A2966 RMK AO2 SLP065 P0000 60000 T01110089 10122 20111 56002
PANV 180056Z AUTO 18008KT 10SM SCT026 BKN046 OVC060 12/08 A2966 RMK AO2 SLP064 T01220078
PANV 172254Z AUTO 14013G18KT 10SM -RA FEW013 SCT018 OVC035 11/08 A2964 RMK AO2 RAB10 P0000